Time;durP1;ratioP1;P1;durP2;ratioP2;P2;SDS_P1;SDS_P2;PMS_P1;PMS_P2;Temp;Humidity;BMP_temperature;BMP_pressure;BME280_temperature;BME280_humidity;BME280_pressure;Samples;Min_cycle;Max_cycle;Signal;HPM_P1;HPM_P2
2021/11/28 00:01:17;;;;;;;1.80;1.13;;;;;;;5.19;100.00;98668.06;4969796;28;20169;-67
2021/11/28 00:03:46;;;;;;;2.20;1.60;;;;;;;5.23;100.00;98666.19;4966263;28;20031;-67
2021/11/28 00:06:21;;;;;;;1.95;1.42;;;;;;;5.16;100.00;98668.78;4968032;28;20027;-68
2021/11/28 00:09:06;;;;;;;2.30;1.25;;;;;;;5.10;100.00;98662.25;4970606;28;20092;-68
2021/11/28 00:11:34;;;;;;;2.03;1.33;;;;;;;5.15;100.00;98669.91;4969326;28;20035;-67
2021/11/28 00:16:25;;;;;;;1.80;1.25;;;;;;;5.11;100.00;98671.78;4969367;28;20508;-67
2021/11/28 00:18:54;;;;;;;4.47;1.50;;;;;;;5.07;100.00;98665.66;4968934;28;20039;-67
2021/11/28 00:21:20;;;;;;;2.72;1.58;;;;;;;5.04;100.00;98669.06;4971891;28;20035;-66
2021/11/28 00:23:46;;;;;;;1.38;1.17;;;;;;;5.08;100.00;98671.75;4964095;28;20035;-69
2021/11/28 00:26:12;;;;;;;2.28;0.98;;;;;;;5.01;100.00;98663.69;4969368;28;20030;-67
2021/11/28 00:28:38;;;;;;;2.80;1.75;;;;;;;5.01;100.00;98664.47;4965942;28;20034;-67
2021/11/28 00:31:05;;;;;;;1.77;1.42;;;;;;;4.99;100.00;98666.75;4964038;28;20086;-67
2021/11/28 00:33:34;;;;;;;2.47;1.65;;;;;;;4.91;100.00;98672.34;4968884;28;20035;-68
2021/11/28 00:36:00;;;;;;;6.93;1.98;;;;;;;4.97;100.00;98666.34;4968385;28;20023;-67
2021/11/28 00:38:26;;;;;;;3.67;1.73;;;;;;;4.98;100.00;98669.75;4968790;28;20031;-67
2021/11/28 00:40:53;;;;;;;3.15;1.60;;;;;;;5.02;100.00;98666.00;4965952;28;20081;-67
2021/11/28 00:43:19;;;;;;;2.75;1.33;;;;;;;4.96;100.00;98664.78;4967469;28;20031;-67
2021/11/28 00:45:46;;;;;;;4.25;2.20;;;;;;;4.94;100.00;98669.72;4969389;28;20093;-67
2021/11/28 00:48:11;;;;;;;2.15;1.50;;;;;;;4.97;100.00;98673.56;4969573;28;20097;-66
2021/11/28 00:53:09;;;;;;;;;;;;;;;4.97;100.00;98671.66;4971951;28;20034;-67
2021/11/28 00:55:35;;;;;;;2.75;1.60;;;;;;;5.00;100.00;98667.47;4971766;28;20403;-66
2021/11/28 00:58:00;;;;;;;3.60;1.77;;;;;;;4.99;100.00;98676.63;4971244;28;20046;-66
2021/11/28 01:00:49;;;;;;;1.98;1.58;;;;;;;5.04;100.00;98676.28;4970569;28;20035;-67
2021/11/28 01:03:14;;;;;;;4.35;1.40;;;;;;;5.01;100.00;98675.13;4930613;29;20044;-67
2021/11/28 01:05:40;;;;;;;8.30;2.10;;;;;;;4.93;100.00;98681.53;4928017;29;20061;-67
2021/11/28 01:08:06;;;;;;;3.42;1.63;;;;;;;4.94;100.00;98679.59;4929966;29;20047;-67
2021/11/28 01:10:32;;;;;;;3.67;1.60;;;;;;;4.92;100.00;98689.88;4922834;29;20157;-66
2021/11/28 01:12:57;;;;;;;2.30;1.45;;;;;;;4.89;100.00;98683.38;4927025;29;20055;-67
2021/11/28 01:15:23;;;;;;;1.83;1.38;;;;;;;4.86;100.00;98683.34;4931172;29;20067;-69
2021/11/28 01:17:49;;;;;;;3.97;1.85;;;;;;;4.90;100.00;98687.56;4929681;29;20216;-68
2021/11/28 01:20:14;;;;;;;1.55;1.42;;;;;;;4.83;100.00;98690.19;4930397;29;20039;-68
2021/11/28 01:22:40;;;;;;;3.78;1.48;;;;;;;4.84;100.00;98688.28;4930497;29;20079;-67
2021/11/28 01:25:07;;;;;;;4.22;2.00;;;;;;;4.94;100.00;98691.03;4928955;29;20102;-67
2021/11/28 01:27:36;;;;;;;2.65;1.85;;;;;;;4.84;100.00;98701.63;4929219;29;20048;-67
2021/11/28 01:30:03;;;;;;;2.13;1.58;;;;;;;4.82;100.00;98704.63;4929412;29;20063;-66
2021/11/28 01:32:35;;;;;;;2.80;1.90;;;;;;;4.82;100.00;98698.53;4926169;29;20543;-68
2021/11/28 01:35:02;;;;;;;2.30;1.45;;;;;;;4.74;100.00;98700.38;4929610;29;20044;-67
2021/11/28 01:37:29;;;;;;;2.28;1.38;;;;;;;4.68;100.00;98704.47;4930162;29;20039;-67
2021/11/28 01:39:54;;;;;;;2.00;1.15;;;;;;;4.73;100.00;98700.72;4944085;28;20039;-67
2021/11/28 01:42:36;;;;;;;3.33;1.80;;;;;;;4.63;100.00;98694.13;4970278;28;20097;-68
2021/11/28 01:45:02;;;;;;;2.40;1.58;;;;;;;4.63;100.00;98696.78;4968323;28;20054;-68
2021/11/28 01:47:28;;;;;;;2.33;1.65;;;;;;;4.62;100.00;98695.28;4962816;28;20030;-65
2021/11/28 01:49:54;;;;;;;3.78;1.42;;;;;;;4.57;100.00;98701.69;4968615;28;20085;-65
2021/11/28 01:52:20;;;;;;;1.98;1.23;;;;;;;4.55;100.00;98703.94;4970725;28;20030;-67
2021/11/28 01:54:45;;;;;;;2.10;1.35;;;;;;;4.53;100.00;98702.75;4969311;28;20042;-68
2021/11/28 01:57:12;;;;;;;2.90;1.45;;;;;;;4.54;100.00;98705.09;4969457;28;20038;-67
2021/11/28 01:59:40;;;;;;;3.88;1.70;;;;;;;4.52;100.00;98702.00;4969060;28;20496;-67
2021/11/28 02:02:06;;;;;;;2.15;1.33;;;;;;;4.49;100.00;98701.97;4964914;28;20031;-67
2021/11/28 02:04:33;;;;;;;2.67;1.50;;;;;;;4.49;100.00;98697.41;4968143;28;20134;-67
2021/11/28 02:06:58;;;;;;;3.72;1.70;;;;;;;4.49;100.00;98704.66;4985649;28;20034;-67
2021/11/28 02:09:25;;;;;;;3.22;1.83;;;;;;;4.49;100.00;98696.66;4966025;28;20442;-67
2021/11/28 02:11:50;;;;;;;4.43;1.83;;;;;;;4.49;100.00;98697.41;4969716;28;20038;-68
2021/11/28 02:14:16;;;;;;;3.95;1.90;;;;;;;4.45;100.00;98699.25;4968172;28;20090;-67
2021/11/28 02:16:52;;;;;;;2.88;1.67;;;;;;;4.41;100.00;98698.44;4968357;28;20042;-67
2021/11/28 02:19:17;;;;;;;3.03;1.65;;;;;;;4.40;100.00;98693.47;4967289;28;20038;-68
2021/11/28 02:21:43;;;;;;;3.90;1.88;;;;;;;4.43;100.00;98698.84;4968508;28;20307;-68
2021/11/28 02:24:09;;;;;;;3.40;2.05;;;;;;;4.44;100.00;98696.94;4969899;28;20133;-68
2021/11/28 02:26:37;;;;;;;1.88;1.55;;;;;;;4.48;100.00;98693.22;4965028;28;20037;-67
2021/11/28 02:29:03;;;;;;;3.20;2.08;;;;;;;4.49;100.00;98701.97;4966751;28;20521;-66
2021/11/28 02:31:29;;;;;;;6.15;2.28;;;;;;;4.51;100.00;98689.81;4968583;28;20035;-67
2021/11/28 02:33:55;;;;;;;5.50;2.45;;;;;;;4.51;100.00;98699.69;4964465;28;20034;-67
2021/11/28 02:36:21;;;;;;;2.88;2.03;;;;;;;4.49;100.00;98686.00;4948656;28;20030;-67
2021/11/28 02:38:47;;;;;;;3.95;2.00;;;;;;;4.44;100.00;98694.28;4970724;28;20045;-67
2021/11/28 02:41:13;;;;;;;3.58;1.70;;;;;;;4.43;100.00;98690.84;4969550;28;20466;-68
2021/11/28 02:43:41;;;;;;;3.50;1.83;;;;;;;4.48;100.00;98685.22;4967657;28;20038;-67
2021/11/28 02:46:09;;;;;;;3.08;1.88;;;;;;;4.51;100.00;98689.81;4982781;28;20027;-67
2021/11/28 02:48:35;;;;;;;4.47;1.70;;;;;;;4.50;100.00;98684.84;4967766;28;20161;-66
2021/11/28 02:51:02;;;;;;;3.65;2.25;;;;;;;4.51;100.00;98684.47;4970288;28;20031;-67
2021/11/28 02:53:28;;;;;;;3.30;1.73;;;;;;;4.51;100.00;98691.69;4967186;28;20039;-68
2021/11/28 02:56:01;;;;;;;6.38;2.47;;;;;;;4.58;100.00;98692.56;4970083;28;20031;-67
2021/11/28 02:58:33;;;;;;;2.88;2.17;;;;;;;4.50;100.00;98698.16;4982522;28;20769;-68
2021/11/28 03:01:07;;;;;;;3.63;2.53;;;;;;;4.41;100.00;98700.34;4969689;28;20031;-67
2021/11/28 03:03:33;;;;;;;2.75;1.70;;;;;;;4.37;100.00;98704.88;4968242;28;20037;-67
2021/11/28 03:05:59;;;;;;;4.72;2.60;;;;;;;4.36;100.00;98692.66;4970809;28;20046;-66
2021/11/28 03:08:25;;;;;;;3.47;2.10;;;;;;;4.39;100.00;98700.69;4969066;28;20035;-68
2021/11/28 03:10:54;;;;;;;11.73;3.10;;;;;;;4.43;100.00;98692.75;4963151;28;20546;-66
2021/11/28 03:13:34;;;;;;;6.15;2.35;;;;;;;4.44;100.00;98702.28;4981045;28;20491;-68
2021/11/28 03:16:05;;;;;;;3.38;1.88;;;;;;;4.42;100.00;98699.97;4962004;28;20035;-68
2021/11/28 03:18:32;;;;;;;4.50;2.17;;;;;;;4.43;100.00;98703.41;4966173;28;20042;-68
2021/11/28 03:21:03;;;;;;;5.15;2.33;;;;;;;4.40;100.00;98704.13;4947983;28;20388;-66
2021/11/28 03:23:31;;;;;;;4.60;2.22;;;;;;;4.51;100.00;98705.78;4981772;28;20038;-67
2021/11/28 03:26:22;;;;;;;3.25;1.70;;;;;;;4.45;100.00;98696.56;4969488;28;20050;-66
2021/11/28 03:28:49;;;;;;;7.03;2.55;;;;;;;4.54;100.00;98705.09;4968141;28;20047;-67
2021/11/28 03:31:20;;;;;;;;;;;;;;;4.53;100.00;98697.44;4967057;28;20035;-67
2021/11/28 03:34:06;;;;;;;6.50;1.42;;;;;;;4.49;100.00;98702.72;4968378;28;19921;-67
2021/11/28 03:36:38;;;;;;;5.82;2.40;;;;;;;4.54;100.00;98710.41;4966707;28;20039;-68
2021/11/28 03:39:08;;;;;;;5.43;2.92;;;;;;;4.52;100.00;98702.00;4970404;28;20026;-67
2021/11/28 03:41:34;;;;;;;6.43;2.30;;;;;;;4.41;100.00;98703.00;4987402;28;20443;-66
2021/11/28 03:44:01;;;;;;;2.45;1.85;;;;;;;4.44;100.00;98707.59;4971087;28;20027;-68
2021/11/28 03:46:31;;;;;;;4.90;1.52;;;;;;;4.46;100.00;98708.00;4972736;28;20547;-67
2021/11/28 03:49:01;;;;;;;3.67;1.83;;;;;;;4.40;100.00;98704.13;4989124;28;20042;-67
2021/11/28 03:51:27;;;;;;;6.75;2.72;;;;;;;4.47;100.00;98706.91;4967256;28;20097;-68
2021/11/28 03:54:13;;;;;;;6.03;2.28;;;;;;;4.48;100.00;98714.53;4972605;28;20030;-67
2021/11/28 03:56:39;;;;;;;5.90;2.00;;;;;;;4.54;100.00;98707.75;4933560;29;20069;-68
2021/11/28 03:59:06;;;;;;;2.95;1.75;;;;;;;4.49;100.00;98709.97;4961707;23;20133;-65
2021/11/28 04:01:34;;;;;;;6.03;2.63;;;;;;;4.38;100.00;98709.06;4972467;28;20042;-65
2021/11/28 04:04:00;;;;;;;7.55;2.42;;;;;;;4.35;100.00;98710.56;4974059;28;20027;-65
2021/11/28 04:07:01;;;;;;;3.35;2.03;;;;;;;4.42;100.00;98715.19;4975489;28;20049;-65
2021/11/28 04:09:28;;;;;;;4.05;2.30;;;;;;;4.40;100.00;98717.44;4962905;28;20480;-65
2021/11/28 04:11:55;;;;;;;5.07;2.58;;;;;;;4.44;100.00;98710.28;4970783;28;20030;-64
2021/11/28 04:14:21;;;;;;;4.35;2.50;;;;;;;4.44;100.00;98705.72;4976902;28;20038;-64
2021/11/28 04:16:47;;;;;;;6.18;2.70;;;;;;;4.59;100.00;98718.06;4953408;28;20518;-64
2021/11/28 04:19:14;;;;;;;6.18;2.42;;;;;;;4.53;100.00;98708.09;4967091;28;20038;-65
2021/11/28 04:21:45;;;;;;;1.58;1.25;;;;;;;4.45;100.00;98706.50;4977107;28;20037;-64
2021/11/28 04:24:13;;;;;;;5.28;2.53;;;;;;;4.42;100.00;98710.63;4968654;28;20036;-65
2021/11/28 04:26:39;;;;;;;5.80;2.28;;;;;;;4.47;100.00;98709.56;4963730;28;20411;-65
2021/11/28 04:29:09;;;;;;;3.67;1.83;;;;;;;4.47;100.00;98706.91;4993116;28;20058;-65
2021/11/28 04:31:36;;;;;;;3.95;2.13;;;;;;;4.48;100.00;98711.09;4968212;28;20035;-64
2021/11/28 04:34:04;;;;;;;5.43;2.45;;;;;;;4.47;100.00;98707.66;4962150;28;20037;-65
2021/11/28 04:36:29;;;;;;;7.57;2.35;;;;;;;4.49;100.00;98712.63;4997503;28;20039;-65
2021/11/28 04:38:56;;;;;;;7.63;2.03;;;;;;;4.52;100.00;98717.22;4967296;28;20134;-64
2021/11/28 04:41:21;;;;;;;4.28;2.40;;;;;;;4.45;100.00;98712.56;4971724;28;20118;-64
2021/11/28 04:43:54;;;;;;;2.45;1.77;;;;;;;4.47;100.00;98712.22;4971483;28;20042;-65
2021/11/28 04:46:20;;;;;;;4.25;2.42;;;;;;;4.46;100.00;98711.44;4970486;28;20173;-64
2021/11/28 04:48:46;;;;;;;4.60;2.25;;;;;;;4.51;100.00;98710.34;4970061;28;20423;-64
2021/11/28 04:51:24;;;;;;;5.68;1.83;;;;;;;4.56;100.00;98720.72;4969495;28;20053;-65
2021/11/28 04:53:49;;;;;;;4.47;2.35;;;;;;;4.59;100.00;98720.75;4996905;28;20514;-65
2021/11/28 04:56:18;;;;;;;5.60;2.55;;;;;;;4.56;100.00;98728.69;4990843;28;20042;-65
2021/11/28 04:58:44;;;;;;;4.78;2.42;;;;;;;4.60;100.00;98721.53;4987405;28;20035;-64
2021/11/28 05:01:09;;;;;;;3.17;1.60;;;;;;;4.57;100.00;98719.56;4968291;28;20042;-65
2021/11/28 05:03:35;;;;;;;1.83;1.42;;;;;;;4.58;100.00;98726.44;4957285;28;20035;-65
2021/11/28 05:06:21;;;;;;;4.55;2.55;;;;;;;4.57;100.00;98730.22;4978627;28;20057;-66
2021/11/28 05:09:05;;;;;;;4.70;2.45;;;;;;;4.64;100.00;98734.88;4964801;28;20050;-65
2021/11/28 05:11:31;;;;;;;4.53;2.17;;;;;;;4.66;100.00;98728.06;4975879;28;20796;-65
2021/11/28 05:13:57;;;;;;;5.45;2.42;;;;;;;4.62;100.00;98737.13;4978409;28;20117;-65
2021/11/28 05:16:23;;;;;;;4.18;1.75;;;;;;;4.61;100.00;98746.28;4971891;28;20066;-65
2021/11/28 05:18:51;;;;;;;3.85;1.92;;;;;;;4.63;100.00;98744.03;4964906;28;20066;-65
2021/11/28 05:21:46;;;;;;;3.75;1.98;;;;;;;4.65;100.00;98749.72;4919498;28;20063;-65
2021/11/28 05:24:12;;;;;;;3.28;2.15;;;;;;;4.63;100.00;98744.03;4966932;28;20035;-65
2021/11/28 05:26:42;;;;;;;5.65;2.10;;;;;;;4.61;100.00;98740.94;4963860;28;20744;-65
2021/11/28 05:29:08;;;;;;;2.60;2.40;;;;;;;4.58;100.00;98739.78;4972853;28;20039;-65
2021/11/28 05:31:36;;;;;;;2.80;1.73;;;;;;;4.61;100.00;98736.38;4987157;28;20091;-65
2021/11/28 05:34:20;;;;;;;2.65;1.48;;;;;;;4.55;100.00;98738.59;4983724;28;20033;-65
2021/11/28 05:37:04;;;;;;;5.25;2.25;;;;;;;4.56;100.00;98739.34;4983530;28;20100;-66
2021/11/28 05:39:36;;;;;;;7.25;2.75;;;;;;;4.64;100.00;98740.22;4965496;28;20039;-65
2021/11/28 05:42:01;;;;;;;5.32;2.40;;;;;;;4.65;100.00;98747.84;4968992;28;20045;-65
2021/11/28 05:44:28;;;;;;;5.75;3.05;;;;;;;4.73;100.00;98743.38;4986791;28;20026;-65
2021/11/28 05:47:14;;;;;;;7.40;2.72;;;;;;;4.75;100.00;98752.53;4974465;28;20070;-65
2021/11/28 05:49:58;;;;;;;9.02;2.47;;;;;;;4.69;100.00;98753.22;4978757;28;20053;-65
2021/11/28 05:52:38;;;;;;;3.60;2.47;;;;;;;4.70;100.00;98752.88;4975350;28;20042;-65
2021/11/28 05:55:04;;;;;;;3.20;2.00;;;;;;;4.57;100.00;98754.22;4968610;28;20039;-65
2021/11/28 05:57:30;;;;;;;5.78;2.75;;;;;;;4.57;100.00;98746.22;4999944;28;20398;-64
2021/11/28 05:59:56;;;;;;;7.70;2.90;;;;;;;4.62;100.00;98750.47;4969283;28;20038;-65
2021/11/28 06:02:22;;;;;;;4.50;1.98;;;;;;;4.57;100.00;98748.88;4974105;28;20455;-64
2021/11/28 06:04:57;;;;;;;5.38;2.28;;;;;;;4.62;100.00;98748.56;4954330;28;20412;-64
2021/11/28 06:07:48;;;;;;;4.20;2.28;;;;;;;4.63;100.00;98760.75;4956389;28;20114;-64
2021/11/28 06:10:14;;;;;;;7.60;2.78;;;;;;;4.63;100.00;98755.44;4956696;28;20057;-64
2021/11/28 06:12:39;;;;;;;3.95;1.95;;;;;;;4.56;100.00;98750.78;4996728;28;20094;-64
2021/11/28 06:15:05;;;;;;;8.20;2.75;;;;;;;4.63;100.00;98755.44;4969370;28;20026;-64
2021/11/28 06:17:54;;;;;;;5.05;2.13;;;;;;;4.61;100.00;98757.69;4971078;28;20077;-64
2021/11/28 06:20:42;;;;;;;4.25;2.47;;;;;;;4.53;100.00;98751.50;4983390;28;20080;-64
2021/11/28 06:23:15;;;;;;;6.18;2.53;;;;;;;4.62;100.00;98753.91;4962279;28;20036;-64
2021/11/28 06:25:41;;;;;;;3.22;2.08;;;;;;;4.60;100.00;98756.16;4954093;28;20094;-64
2021/11/28 06:28:06;;;;;;;5.28;2.38;;;;;;;4.62;100.00;98759.25;4952099;28;20448;-64
2021/11/28 06:30:33;;;;;;;2.55;1.92;;;;;;;4.70;100.00;98752.88;4956917;28;20038;-64
2021/11/28 06:33:22;;;;;;;3.63;1.90;;;;;;;4.64;100.00;98758.88;4940069;28;20049;-64
2021/11/28 06:36:08;;;;;;;3.17;2.00;;;;;;;4.66;100.00;98756.63;4946031;28;20108;-65
2021/11/28 06:39:02;;;;;;;4.53;2.20;;;;;;;4.67;100.00;98755.47;4952159;28;20046;-64
2021/11/28 06:41:34;;;;;;;7.07;1.98;;;;;;;4.72;100.00;98761.28;4984145;28;20046;-67
2021/11/28 06:43:59;;;;;;;3.58;1.98;;;;;;;4.74;100.00;98760.91;4989877;28;20121;-63
2021/11/28 06:46:25;;;;;;;5.00;2.55;;;;;;;4.78;100.00;98759.81;4980635;28;20026;-64
2021/11/28 06:48:54;;;;;;;5.97;2.63;;;;;;;4.73;100.00;98765.47;4966226;28;20587;-65
2021/11/28 06:51:57;;;;;;;5.80;2.95;;;;;;;4.69;100.00;98772.66;4903667;29;20159;-64
2021/11/28 06:54:42;;;;;;;5.20;2.10;;;;;;;4.69;100.00;98771.88;4973097;28;20077;-65
2021/11/28 06:57:08;;;;;;;4.22;1.95;;;;;;;4.75;100.00;98773.88;4958270;28;20101;-64
2021/11/28 06:59:36;;;;;;;7.15;2.72;;;;;;;4.76;100.00;98775.41;4958670;28;20512;-64
2021/11/28 07:02:02;;;;;;;9.75;3.10;;;;;;;4.83;100.00;98783.50;4978352;28;20402;-64
2021/11/28 07:04:28;;;;;;;4.82;2.03;;;;;;;4.80;100.00;98786.13;4954757;28;20051;-64
2021/11/28 07:07:12;;;;;;;4.35;2.30;;;;;;;4.72;100.00;98779.94;4953167;28;20098;-64
2021/11/28 07:09:43;;;;;;;5.63;3.13;;;;;;;4.78;100.00;98786.47;4951716;28;20411;-65
2021/11/28 07:12:09;;;;;;;5.28;2.05;;;;;;;4.77;100.00;98798.25;4979381;28;20035;-65
2021/11/28 07:14:35;;;;;;;6.53;2.78;;;;;;;4.73;100.00;98789.44;4953614;28;20146;-66
2021/11/28 07:17:02;;;;;;;5.72;2.53;;;;;;;4.71;100.00;98794.38;4963461;28;20062;-65
2021/11/28 07:19:29;;;;;;;3.65;1.67;;;;;;;4.78;100.00;98791.78;4977264;28;20117;-65
2021/11/28 07:22:07;;;;;;;5.53;2.55;;;;;;;4.90;100.00;98796.13;4993749;28;20046;-65
2021/11/28 07:24:37;;;;;;;7.05;1.92;;;;;;;4.77;100.00;98797.50;4992227;28;20513;-64
2021/11/28 07:27:03;;;;;;;4.63;2.28;;;;;;;4.75;100.00;98789.09;5002674;28;20027;-65
2021/11/28 07:29:29;;;;;;;4.60;2.30;;;;;;;4.71;100.00;98794.38;5000332;28;20512;-65
2021/11/28 07:31:55;;;;;;;3.67;2.40;;;;;;;4.75;100.00;98797.84;5008994;28;20034;-65
2021/11/28 07:34:39;;;;;;;4.75;2.45;;;;;;;4.78;100.00;98791.03;4986473;28;20038;-64
2021/11/28 07:37:34;;;;;;;3.92;2.05;;;;;;;4.82;100.00;98789.19;4916750;28;20055;-65
2021/11/28 07:40:03;;;;;;;6.53;2.60;;;;;;;4.78;100.00;98794.44;4951979;28;20039;-65
2021/11/28 07:42:30;;;;;;;5.10;2.28;;;;;;;4.79;100.00;98789.91;4956326;28;20388;-66
2021/11/28 07:44:58;;;;;;;4.28;2.30;;;;;;;4.78;100.00;98794.44;4956403;28;20118;-64
2021/11/28 07:47:43;;;;;;;6.82;2.42;;;;;;;4.86;100.00;98796.09;4959226;28;20058;-65
2021/11/28 07:50:14;;;;;;;8.18;3.33;;;;;;;4.86;100.00;98795.34;4967309;28;20058;-65
2021/11/28 07:52:43;;;;;;;5.65;2.28;;;;;;;4.83;100.00;98812.03;4954423;28;20106;-65
2021/11/28 07:55:14;;;;;;;6.80;2.22;;;;;;;4.87;100.00;98810.97;4953412;28;20038;-64
2021/11/28 07:58:06;;;;;;;5.53;2.47;;;;;;;4.93;100.00;98814.84;4951578;28;20404;-64
2021/11/28 08:00:51;;;;;;;5.15;2.75;;;;;;;4.88;100.00;98822.41;4954051;28;20066;-64
2021/11/28 08:03:23;;;;;;;8.57;2.88;;;;;;;4.92;100.00;98815.97;4953598;28;20035;-65
2021/11/28 08:06:08;;;;;;;4.63;2.22;;;;;;;4.88;100.00;98817.81;4955730;28;20061;-64
2021/11/28 08:08:46;;;;;;;4.47;2.30;;;;;;;4.89;100.00;98826.59;4952783;28;20531;-64
2021/11/28 08:11:40;;;;;;;5.95;2.00;;;;;;;4.89;100.00;98823.94;4966083;28;20053;-64
2021/11/28 08:14:06;;;;;;;2.28;1.35;;;;;;;4.91;100.00;98830.44;4972709;28;20031;-64
2021/11/28 08:16:31;;;;;;;3.58;1.98;;;;;;;4.89;100.00;98826.59;4974431;28;20031;-65
2021/11/28 08:18:57;;;;;;;8.88;3.20;;;;;;;4.84;100.00;98835.66;4974420;28;20471;-64
2021/11/28 08:21:27;;;;;;;5.65;3.05;;;;;;;4.96;100.00;98845.34;4983182;28;20514;-65
2021/11/28 08:23:58;;;;;;;8.90;2.58;;;;;;;4.86;100.00;98833.41;4980833;28;20043;-64
2021/11/28 08:26:28;;;;;;;5.53;2.30;;;;;;;4.90;100.00;98836.13;4971987;28;20039;-65
2021/11/28 08:28:55;;;;;;;5.97;2.50;;;;;;;4.92;100.00;98836.53;4974270;28;20045;-64
2021/11/28 08:31:21;;;;;;;2.45;1.63;;;;;;;4.92;100.00;98837.31;4967628;28;20023;-64
2021/11/28 08:34:05;;;;;;;6.20;2.60;;;;;;;4.95;100.00;98847.25;4956299;28;20050;-65
2021/11/28 08:36:42;;;;;;;7.53;2.63;;;;;;;4.99;100.00;98845.41;4967698;28;21238;-64
2021/11/28 08:39:08;;;;;;;8.15;3.25;;;;;;;5.06;100.00;98842.03;4955931;28;20039;-65
2021/11/28 08:41:34;;;;;;;4.65;2.50;;;;;;;5.12;100.00;98848.59;4960435;28;20492;-65
2021/11/28 08:44:00;;;;;;;7.60;3.17;;;;;;;5.14;100.00;98849.00;4967489;28;20031;-65
2021/11/28 08:46:26;;;;;;;7.78;2.35;;;;;;;5.09;100.00;98841.34;4968042;28;20484;-65
2021/11/28 08:48:54;;;;;;;4.43;1.80;;;;;;;5.02;100.00;98842.00;4969446;28;20507;-65
2021/11/28 08:51:25;;;;;;;5.95;2.60;;;;;;;5.08;100.00;98840.56;4984298;28;20027;-64
2021/11/28 08:53:52;;;;;;;3.83;2.15;;;;;;;5.12;100.00;98841.38;4966417;28;20037;-64
2021/11/28 08:56:18;;;;;;;8.13;2.92;;;;;;;5.11;100.00;98828.41;4969968;28;20030;-65
2021/11/28 08:58:44;;;;;;;4.53;2.00;;;;;;;5.12;100.00;98838.72;4969791;28;20045;-64
2021/11/28 09:01:11;;;;;;;4.35;2.25;;;;;;;5.21;100.00;98833.06;4971107;28;20117;-65
2021/11/28 09:03:40;;;;;;;6.00;3.17;;;;;;;5.23;100.00;98831.59;4968282;28;20035;-64
2021/11/28 09:06:05;;;;;;;3.78;2.30;;;;;;;5.24;100.00;98827.81;4964746;28;20118;-65
2021/11/28 09:08:31;;;;;;;6.35;3.17;;;;;;;5.28;100.00;98831.25;4984280;28;20164;-65
2021/11/28 09:10:56;;;;;;;6.43;2.85;;;;;;;5.30;100.00;98836.25;4972320;28;20039;-65
2021/11/28 09:13:22;;;;;;;6.95;2.40;;;;;;;5.37;100.00;98837.09;4966892;28;20030;-64
2021/11/28 09:15:48;;;;;;;4.50;2.40;;;;;;;5.39;100.00;98836.72;4978624;28;20392;-65
2021/11/28 09:18:20;;;;;;;6.32;3.35;;;;;;;5.41;100.00;98839.78;4977060;28;20154;-64
2021/11/28 09:20:50;;;;;;;5.50;2.47;;;;;;;5.44;100.00;98839.06;4967357;28;20081;-65
2021/11/28 09:25:42;;;;;;;7.15;3.05;;;;;;;5.63;100.00;98838.13;4972190;28;20042;-64
2021/11/28 09:28:08;;;;;;;5.78;3.08;;;;;;;5.65;100.00;98846.53;4963209;28;20038;-65
2021/11/28 09:30:36;;;;;;;10.88;2.55;;;;;;;5.65;100.00;98838.53;4964621;28;20091;-64
2021/11/28 09:33:03;;;;;;;6.97;3.03;;;;;;;5.71;100.00;98839.72;4971446;28;20033;-65
2021/11/28 09:35:30;;;;;;;6.82;2.72;;;;;;;5.70;100.00;98851.53;4971758;28;20026;-64
2021/11/28 09:37:56;;;;;;;8.25;3.35;;;;;;;5.73;100.00;98846.22;4971769;28;20113;-65
2021/11/28 09:40:22;;;;;;;7.22;2.85;;;;;;;5.75;100.00;98846.63;4966006;28;20505;-65
2021/11/28 09:42:57;;;;;;;10.40;4.22;;;;;;;5.88;100.00;98844.50;4969951;28;20043;-65
2021/11/28 09:45:27;;;;;;;8.45;3.22;;;;;;;5.81;100.00;98847.06;4952113;28;20035;-64
2021/11/28 09:47:56;;;;;;;6.65;3.30;;;;;;;5.80;100.00;98848.22;4976839;28;20391;-65
2021/11/28 09:50:24;;;;;;;5.18;2.50;;;;;;;5.83;100.00;98847.47;4983373;28;20042;-65
2021/11/28 09:52:50;;;;;;;9.15;3.25;;;;;;;5.86;100.00;98846.78;4975353;28;20038;-65
2021/11/28 09:55:17;;;;;;;8.23;3.00;;;;;;;5.88;100.00;98841.81;4973035;28;20050;-65
2021/11/28 09:57:42;;;;;;;6.85;2.80;;;;;;;5.92;100.00;98840.72;4966282;28;20043;-65
2021/11/28 10:00:12;;;;;;;6.45;2.53;;;;;;;5.89;100.00;98846.03;4961532;28;20333;-65
2021/11/28 10:02:38;;;;;;;8.52;2.22;;;;;;;5.91;100.00;98839.19;4964624;28;20130;-64
2021/11/28 10:05:11;;;;;;;4.50;2.85;;;;;;;5.89;100.00;98838.78;4959407;28;20054;-65
2021/11/28 10:07:42;;;;;;;9.25;2.97;;;;;;;5.92;100.00;98834.63;4974104;28;20042;-64
2021/11/28 10:10:10;;;;;;;5.38;2.78;;;;;;;5.97;100.00;98839.63;4955919;28;20042;-64
2021/11/28 10:12:42;;;;;;;8.77;3.42;;;;;;;6.06;100.00;98834.72;4968329;28;20501;-65
2021/11/28 10:15:20;;;;;;;9.07;4.18;;;;;;;6.00;100.00;98830.88;4955172;28;20039;-66
2021/11/28 10:17:46;;;;;;;9.95;3.58;;;;;;;6.02;100.00;98837.38;4959593;28;20034;-65
2021/11/28 10:20:22;;;;;;;5.85;2.65;;;;;;;6.00;100.00;98825.53;4957015;28;20109;-65
2021/11/28 10:22:49;;;;;;;8.30;3.67;;;;;;;6.03;100.00;98835.47;4956748;28;20060;-66
2021/11/28 10:25:21;;;;;;;8.68;2.50;;;;;;;6.04;100.00;98834.34;4955327;28;20034;-66
2021/11/28 10:28:10;;;;;;;11.05;3.45;;;;;;;5.96;100.00;98832.75;4959829;28;20160;-64
2021/11/28 10:30:45;;;;;;;7.43;3.20;;;;;;;5.95;100.00;98833.88;4954998;28;20050;-65
2021/11/28 10:33:17;;;;;;;4.22;2.47;;;;;;;5.85;100.00;98835.31;4958479;28;20023;-66
2021/11/28 10:36:05;;;;;;;7.50;3.08;;;;;;;5.89;100.00;98825.44;4964909;28;20068;-65
2021/11/28 10:38:36;;;;;;;5.72;2.42;;;;;;;5.85;100.00;98834.53;4962580;28;20043;-65
2021/11/28 10:41:02;;;;;;;;;;;;;;;5.86;100.00;98825.41;4958928;28;20035;-65
2021/11/28 10:43:40;;;;;;;6.30;2.65;;;;;;;5.90;100.00;98821.63;4962744;28;19922;-65
2021/11/28 10:46:32;;;;;;;4.80;2.38;;;;;;;5.88;100.00;98823.13;4956098;28;20802;-66
2021/11/28 10:49:18;;;;;;;5.00;1.85;;;;;;;5.88;100.00;98829.25;4959978;28;20038;-65
2021/11/28 10:51:50;;;;;;;12.35;3.17;;;;;;;5.92;100.00;98827.34;4959238;28;20566;-66
2021/11/28 10:54:22;;;;;;;6.88;2.75;;;;;;;5.94;100.00;98827.75;4960001;28;20037;-66
2021/11/28 10:57:14;;;;;;;7.85;2.63;;;;;;;5.92;100.00;98829.28;4964260;28;20065;-64
2021/11/28 10:59:54;;;;;;;4.90;2.88;;;;;;;5.94;100.00;98832.34;4956895;28;20557;-65
2021/11/28 11:02:27;;;;;;;10.35;3.25;;;;;;;5.95;100.00;98845.31;4960607;28;21888;-65
2021/11/28 11:04:56;;;;;;;5.03;2.33;;;;;;;5.97;100.00;98839.63;4954382;28;20031;-65
2021/11/28 11:07:23;;;;;;;5.45;2.20;;;;;;;6.00;100.00;98846.91;4959980;28;20042;-67
2021/11/28 11:09:51;;;;;;;2.85;1.65;;;;;;;6.01;100.00;98848.44;4968030;28;20088;-66
2021/11/28 11:12:24;;;;;;;7.45;2.45;;;;;;;6.02;100.00;98848.06;4968804;28;20090;-67
2021/11/28 11:14:52;;;;;;;5.10;2.50;;;;;;;6.01;100.00;98843.09;4958402;28;20530;-66
2021/11/28 11:17:20;;;;;;;3.28;1.80;;;;;;;6.00;100.00;98846.91;4959808;28;20396;-67
2021/11/28 11:19:48;;;;;;;8.88;2.78;;;;;;;6.03;100.00;98846.94;4955360;28;20031;-67
2021/11/28 11:22:18;;;;;;;5.95;2.17;;;;;;;6.11;100.00;98851.19;4955263;28;20039;-67
2021/11/28 11:24:53;;;;;;;5.72;2.53;;;;;;;6.11;100.00;98859.22;4959059;28;20039;-66
2021/11/28 11:27:22;;;;;;;5.20;2.60;;;;;;;6.13;100.00;98851.59;4966988;28;20034;-66
2021/11/28 11:29:51;;;;;;;5.28;2.72;;;;;;;6.12;100.00;98847.38;4968350;28;20117;-67
2021/11/28 11:32:24;;;;;;;4.40;2.53;;;;;;;6.09;100.00;98858.81;4960403;28;20689;-66
2021/11/28 11:34:56;;;;;;;5.38;2.30;;;;;;;6.11;100.00;98853.88;4959744;28;20027;-67
2021/11/28 11:37:25;;;;;;;4.30;2.03;;;;;;;6.05;100.00;98855.34;4956478;28;20689;-67
2021/11/28 11:39:52;;;;;;;5.95;2.03;;;;;;;6.10;100.00;98851.56;4959922;28;20376;-67
2021/11/28 11:42:21;;;;;;;7.28;3.30;;;;;;;6.12;100.00;98850.06;4957900;28;20114;-67
2021/11/28 11:44:48;;;;;;;6.30;2.55;;;;;;;6.14;100.00;98845.09;4963646;28;20042;-67
2021/11/28 11:47:18;;;;;;;9.55;4.20;;;;;;;6.17;100.00;98843.63;4961255;28;20141;-68
2021/11/28 11:49:46;;;;;;;6.03;2.92;;;;;;;6.09;100.00;98850.03;4956748;28;20049;-67
2021/11/28 11:52:13;;;;;;;6.75;3.03;;;;;;;6.09;100.00;98856.16;4951885;28;20046;-66
2021/11/28 11:54:46;;;;;;;6.53;2.45;;;;;;;6.11;100.00;98850.44;4951715;28;20776;-66
2021/11/28 11:57:26;;;;;;;5.60;3.20;;;;;;;6.16;100.00;98858.09;4955491;28;20035;-67